Bethel, New York
Current Conditions -  °F | °C
As of 10:35 PM on Friday 28 Nov 2014 (Local Time) from KMSV Reporting Station
Clear Clear  
Wind Chill: -14°   Ceiling: Unl
Heat Index: -9°   Visibility: 10mi
Dew Point: -13°   Wind: 6mph
Humidity: 73%   Direction: 330°NNW
Pressure: 30.16"   Gusts: NA
Location:  41.68°N, 74.86°W
Report Text: KMSV 290335Z AUTO 33005KT 10SM CLR M09/M13 A3016 RMK AO1
Loading
Personal Weather Stations






























Interactive Weather Map New forecast layout! Learn more

10-Day Weather Forecast

Advertisements
Track Severe Weather on mobile